Time;durP1;ratioP1;P1;durP2;ratioP2;P2;SDS_P1;SDS_P2;PMS_P1;PMS_P2;Temp;Humidity;BMP_temperature;BMP_pressure;BME280_temperature;BME280_humidity;BME280_pressure;Samples;Min_cycle;Max_cycle;Signal;HPM_P1;HPM_P2
2023/12/28 00:14:37;;;;;;;0.30;0.30;;;;;;;;;;5737746;23;19993;-92
2023/12/28 00:22:14;;;;;;;0.30;0.30;;;;;;;;;;5169166;23;20066;-91
2023/12/28 01:01:03;;;;;;;0.40;0.40;;;;;;;;;;5654639;23;20065;-91
2023/12/28 01:24:13;;;;;;;0.40;0.40;;;;;;;;;;5013277;28;20046;-92
2023/12/28 01:31:51;;;;;;;0.30;0.30;;;;;;;;;;5135545;23;20588;-92
2023/12/28 01:36:53;;;;;;;0.22;0.22;;;;;;;;;;5354660;23;20047;-92
2023/12/28 01:39:20;;;;;;;0.40;0.40;;;;;;;;;;4977040;28;20082;-90
2023/12/28 01:41:46;;;;;;;0.30;0.30;;;;;;;;;;4976636;28;20555;-92
2023/12/28 01:46:48;;;;;;;0.30;0.30;;;;;;;;;;5511963;23;20086;-92
2023/12/28 02:07:24;;;;;;;0.30;0.30;;;;;;;;;;5011952;28;20050;-92
2023/12/28 03:15:28;;;;;;;0.38;0.38;;;;;;;;;;5490823;23;20081;-93
2023/12/28 03:17:54;;;;;;;0.30;0.30;;;;;;;;;;4956645;29;20047;-92
2023/12/28 04:07:11;;;;;;;0.30;0.30;;;;;;;;;;5499595;23;20090;-92
2023/12/28 04:09:37;;;;;;;0.20;0.20;;;;;;;;;;4970660;29;20047;-92
2023/12/28 04:40:53;;;;;;;0.20;0.20;;;;;;;;;;5049647;23;20252;-92
2023/12/28 04:43:25;;;;;;;0.30;0.30;;;;;;;;;;5033140;23;20083;-93
2023/12/28 04:45:54;;;;;;;0.30;0.30;;;;;;;;;;4972061;28;20052;-92
2023/12/28 06:08:51;;;;;;;0.30;0.30;;;;;;;;;;5719966;23;20113;-93
2023/12/28 06:11:22;;;;;;;0.40;0.40;;;;;;;;;;4992883;28;20110;-92
2023/12/28 07:21:00;;;;;;;;;;;;;;;;;;;;;
2023/12/28 07:23:35;;;;;;;0.30;0.30;;;;;;;;;;4979383;28;20023;-85
2023/12/28 07:26:07;;;;;;;0.30;0.30;;;;;;;;;;4979056;29;20287;-83
2023/12/28 07:28:36;;;;;;;0.30;0.30;;;;;;;;;;4978118;29;20031;-84
2023/12/28 07:31:13;;;;;;;0.20;0.20;;;;;;;;;;4978767;29;20046;-84
2023/12/28 07:33:42;;;;;;;0.20;0.20;;;;;;;;;;4966643;29;20123;-84
2023/12/28 07:36:08;;;;;;;0.20;0.20;;;;;;;;;;4962226;28;20035;-84
2023/12/28 07:38:38;;;;;;;0.30;0.30;;;;;;;;;;4962681;29;20109;-85
2023/12/28 07:41:31;;;;;;;0.20;0.20;;;;;;;;;;4977849;29;20054;-85
2023/12/28 07:44:02;;;;;;;0.40;0.40;;;;;;;;;;4978480;28;20035;-82
2023/12/28 07:46:31;;;;;;;0.20;0.20;;;;;;;;;;4976981;28;20050;-83
2023/12/28 07:49:01;;;;;;;0.20;0.20;;;;;;;;;;4973909;28;20054;-83
2023/12/28 07:51:37;;;;;;;0.20;0.20;;;;;;;;;;4975757;28;20027;-83
2023/12/28 07:54:03;;;;;;;0.30;0.30;;;;;;;;;;4974797;29;20042;-86
2023/12/28 07:56:29;;;;;;;0.30;0.30;;;;;;;;;;4960062;28;20118;-84
2023/12/28 07:58:55;;;;;;;0.30;0.30;;;;;;;;;;4943206;29;20043;-84
2023/12/28 08:01:22;;;;;;;0.30;0.30;;;;;;;;;;4959997;29;20067;-85
2023/12/28 08:04:18;;;;;;;;;;;;;;;;;;;;;
2023/12/28 08:07:22;;;;;;;0.20;0.20;;;;;;;;;;4967539;28;20043;-85
2023/12/28 08:09:48;;;;;;;0.20;0.20;;;;;;;;;;4948386;29;20418;-84
2023/12/28 08:12:14;;;;;;;0.30;0.30;;;;;;;;;;4944115;29;20050;-86
2023/12/28 08:14:40;;;;;;;0.20;0.20;;;;;;;;;;4946861;29;20043;-85
2023/12/28 08:17:06;;;;;;;0.20;0.20;;;;;;;;;;4943630;29;20039;-85
2023/12/28 08:19:33;;;;;;;0.20;0.20;;;;;;;;;;4960787;29;20039;-82
2023/12/28 08:22:04;;;;;;;0.25;0.25;;;;;;;;;;4945084;29;20098;-82
2023/12/28 08:24:36;;;;;;;0.20;0.20;;;;;;;;;;4975444;29;20051;-84
2023/12/28 08:27:03;;;;;;;0.13;0.13;;;;;;;;;;4961847;29;20043;-82
2023/12/28 08:29:47;;;;;;;0.30;0.30;;;;;;;;;;4977302;28;20070;-83
2023/12/28 08:32:18;;;;;;;0.30;0.30;;;;;;;;;;4977100;28;20062;-84
2023/12/28 08:34:47;;;;;;;0.45;0.45;;;;;;;;;;4977651;28;20029;-84
2023/12/28 08:37:17;;;;;;;0.22;0.22;;;;;;;;;;4977132;28;20062;-85
2023/12/28 08:40:05;;;;;;;0.20;0.20;;;;;;;;;;4975425;29;20039;-85
2023/12/28 08:42:32;;;;;;;0.30;0.30;;;;;;;;;;4958780;29;20035;-85
2023/12/28 08:44:58;;;;;;;0.30;0.30;;;;;;;;;;4959914;29;20062;-85
2023/12/28 08:47:32;;;;;;;0.40;0.40;;;;;;;;;;4946081;29;20039;-83
2023/12/28 08:50:47;;;;;;;0.30;0.30;;;;;;;;;;4975132;28;20078;-85
2023/12/28 08:57:06;;;;;;;0.32;0.32;;;;;;;;;;4976479;28;20101;-84
2023/12/28 08:59:32;;;;;;;2.08;1.98;;;;;;;;;;4956435;29;20138;-84
2023/12/28 09:01:58;;;;;;;0.30;0.30;;;;;;;;;;4964980;29;20051;-84
2023/12/28 09:04:39;;;;;;;0.35;0.35;;;;;;;;;;4962225;29;20098;-84
2023/12/28 09:07:06;;;;;;;0.30;0.30;;;;;;;;;;4960494;29;20390;-83
2023/12/28 09:13:05;;;;;;;0.22;0.22;;;;;;;;;;4964573;29;20039;-84
2023/12/28 09:15:38;;;;;;;0.30;0.30;;;;;;;;;;4960671;29;20043;-84
2023/12/28 09:18:08;;;;;;;0.30;0.30;;;;;;;;;;4960763;29;20039;-85
2023/12/28 09:20:35;;;;;;;0.20;0.20;;;;;;;;;;4960623;29;20070;-84
2023/12/28 09:23:01;;;;;;;0.30;0.30;;;;;;;;;;4960325;28;20039;-84
2023/12/28 09:25:38;;;;;;;0.30;0.30;;;;;;;;;;4976757;29;20054;-83
2023/12/28 09:28:13;;;;;;;0.30;0.30;;;;;;;;;;4970803;29;20058;-84
2023/12/28 09:30:42;;;;;;;0.30;0.30;;;;;;;;;;4975950;28;20070;-83
2023/12/28 09:33:12;;;;;;;0.25;0.25;;;;;;;;;;4976492;29;20030;-83
2023/12/28 09:35:41;;;;;;;0.28;0.28;;;;;;;;;;4973637;29;20051;-85
2023/12/28 09:38:10;;;;;;;0.20;0.20;;;;;;;;;;4959898;29;20043;-84
2023/12/28 09:40:57;;;;;;;0.20;0.20;;;;;;;;;;4976468;28;20058;-83
2023/12/28 09:43:30;;;;;;;0.20;0.20;;;;;;;;;;4961735;29;20063;-84
2023/12/28 09:45:56;;;;;;;0.20;0.20;;;;;;;;;;4945515;29;20521;-85
2023/12/28 09:48:25;;;;;;;0.30;0.30;;;;;;;;;;4961526;29;20039;-85
2023/12/28 09:50:54;;;;;;;0.30;0.30;;;;;;;;;;4969171;29;20053;-85
2023/12/28 09:53:24;;;;;;;0.20;0.20;;;;;;;;;;4962031;29;20046;-84
2023/12/28 09:55:54;;;;;;;0.30;0.30;;;;;;;;;;4975544;29;20497;-82
2023/12/28 09:58:22;;;;;;;0.40;0.40;;;;;;;;;;4973046;29;20062;-83
2023/12/28 10:00:50;;;;;;;0.30;0.30;;;;;;;;;;4955173;29;20047;-84
2023/12/28 10:03:16;;;;;;;0.28;0.28;;;;;;;;;;4947242;29;20102;-84
2023/12/28 10:05:58;;;;;;;0.22;0.22;;;;;;;;;;4963261;28;20051;-83
2023/12/28 10:08:31;;;;;;;0.30;0.30;;;;;;;;;;4979617;28;20039;-84
2023/12/28 10:11:07;;;;;;;0.30;0.30;;;;;;;;;;4980313;28;20043;-84
2023/12/28 10:13:39;;;;;;;0.25;0.25;;;;;;;;;;4964025;29;20137;-83
2023/12/28 10:16:09;;;;;;;0.20;0.20;;;;;;;;;;4948777;29;20047;-82
2023/12/28 10:18:36;;;;;;;0.20;0.20;;;;;;;;;;4951438;29;20039;-84
2023/12/28 10:21:04;;;;;;;0.20;0.20;;;;;;;;;;4978774;29;20062;-83
2023/12/28 10:26:58;;;;;;;0.30;0.30;;;;;;;;;;4968831;29;20061;-84
2023/12/28 10:29:31;;;;;;;0.20;0.20;;;;;;;;;;4979508;28;20047;-83
2023/12/28 10:32:04;;;;;;;0.45;0.45;;;;;;;;;;4980250;28;20023;-83
2023/12/28 10:34:33;;;;;;;0.30;0.30;;;;;;;;;;4979665;29;20055;-82
2023/12/28 10:37:02;;;;;;;0.30;0.30;;;;;;;;;;4979336;29;20053;-82
2023/12/28 10:39:35;;;;;;;0.30;0.30;;;;;;;;;;4962406;29;20576;-83
2023/12/28 10:42:35;;;;;;;0.30;0.30;;;;;;;;;;4980820;28;20053;-84
2023/12/28 10:48:32;;;;;;;0.30;0.30;;;;;;;;;;4984928;28;20034;-83
2023/12/28 10:51:10;;;;;;;0.30;0.30;;;;;;;;;;4977452;29;20111;-83
2023/12/28 10:57:06;;;;;;;0.20;0.20;;;;;;;;;;4984715;28;20062;-83
2023/12/28 11:00:02;;;;;;;0.30;0.30;;;;;;;;;;4977792;28;20071;-83
2023/12/28 11:02:34;;;;;;;0.30;0.30;;;;;;;;;;4976995;29;20097;-83
2023/12/28 11:05:09;;;;;;;0.30;0.30;;;;;;;;;;4963767;29;20043;-83
2023/12/28 11:07:48;;;;;;;0.30;0.30;;;;;;;;;;4978527;29;20043;-83
2023/12/28 11:10:14;;;;;;;0.30;0.30;;;;;;;;;;4959703;29;20039;-83
2023/12/28 11:16:05;;;;;;;0.28;0.28;;;;;;;;;;4978119;29;20023;-83
2023/12/28 11:18:36;;;;;;;0.32;0.32;;;;;;;;;;4976113;29;20055;-86
2023/12/28 11:21:04;;;;;;;0.30;0.30;;;;;;;;;;4960668;29;20038;-84
2023/12/28 11:23:31;;;;;;;0.30;0.30;;;;;;;;;;4977446;29;20667;-84
2023/12/28 11:26:00;;;;;;;0.32;0.32;;;;;;;;;;4961452;29;20030;-83
2023/12/28 11:28:29;;;;;;;0.30;0.30;;;;;;;;;;4959750;29;20039;-84
2023/12/28 11:34:33;;;;;;;0.20;0.20;;;;;;;;;;4984573;28;20059;-82
2023/12/28 11:37:13;;;;;;;0.30;0.30;;;;;;;;;;4962098;29;20050;-83
2023/12/28 11:39:44;;;;;;;0.30;0.30;;;;;;;;;;4968346;28;20039;-83
2023/12/28 11:42:39;;;;;;;0.30;0.30;;;;;;;;;;4977661;29;20099;-83
2023/12/28 11:45:11;;;;;;;0.50;0.50;;;;;;;;;;4974602;29;20039;-82
2023/12/28 11:47:43;;;;;;;0.20;0.20;;;;;;;;;;4967796;29;20047;-84
2023/12/28 11:50:30;;;;;;;0.30;0.30;;;;;;;;;;4955573;29;20050;-84
2023/12/28 11:53:42;;;;;;;0.30;0.30;;;;;;;;;;4978503;28;20035;-85
2023/12/28 11:59:59;;;;;;;0.20;0.20;;;;;;;;;;4985477;28;20042;-83
2023/12/28 12:02:26;;;;;;;0.32;0.32;;;;;;;;;;4932921;29;20054;-84
2023/12/28 12:04:53;;;;;;;0.40;0.40;;;;;;;;;;4967274;28;20024;-83
2023/12/28 12:07:22;;;;;;;0.30;0.30;;;;;;;;;;4959020;29;20062;-85
2023/12/28 12:09:49;;;;;;;0.40;0.40;;;;;;;;;;4957864;29;20024;-84
2023/12/28 12:12:17;;;;;;;0.30;0.30;;;;;;;;;;4974359;29;20040;-85
2023/12/28 12:18:28;;;;;;;0.22;0.22;;;;;;;;;;4965802;29;20095;-83
2023/12/28 12:21:06;;;;;;;0.30;0.30;;;;;;;;;;4962385;29;20078;-86
2023/12/28 12:23:36;;;;;;;0.20;0.20;;;;;;;;;;4973051;28;20070;-86
2023/12/28 12:26:06;;;;;;;0.30;0.30;;;;;;;;;;4956004;29;20039;-85
2023/12/28 12:28:58;;;;;;;0.30;0.30;;;;;;;;;;4953544;29;20043;-85
2023/12/28 12:32:18;;;;;;;0.30;0.30;;;;;;;;;;4970433;28;20055;-85
2023/12/28 12:35:22;;;;;;;0.30;0.30;;;;;;;;;;4954606;29;20039;-85
2023/12/28 12:38:11;;;;;;;0.20;0.20;;;;;;;;;;4962728;28;20043;-84
2023/12/28 12:40:39;;;;;;;0.30;0.30;;;;;;;;;;4961439;29;20058;-85
2023/12/28 12:43:19;;;;;;;0.25;0.25;;;;;;;;;;4962137;29;20043;-83
2023/12/28 12:46:15;;;;;;;0.30;0.30;;;;;;;;;;4978237;28;20072;-82
2023/12/28 12:48:58;;;;;;;0.45;0.45;;;;;;;;;;4966612;28;20098;-82
2023/12/28 12:51:29;;;;;;;0.40;0.40;;;;;;;;;;4975047;29;20057;-83
2023/12/28 12:53:59;;;;;;;0.30;0.30;;;;;;;;;;4971677;28;20133;-85
2023/12/28 12:56:28;;;;;;;0.30;0.30;;;;;;;;;;4958788;29;20036;-85
2023/12/28 12:58:55;;;;;;;0.30;0.30;;;;;;;;;;4959780;28;20102;-85
2023/12/28 13:01:21;;;;;;;0.30;0.30;;;;;;;;;;4927747;29;20037;-85
2023/12/28 13:03:49;;;;;;;0.20;0.20;;;;;;;;;;4946782;29;20039;-83
2023/12/28 13:06:18;;;;;;;0.20;0.20;;;;;;;;;;4959102;29;20054;-83
2023/12/28 13:08:46;;;;;;;0.30;0.30;;;;;;;;;;4974997;29;20043;-82
2023/12/28 13:11:26;;;;;;;;;;;;;;;;;;;;;
2023/12/28 13:17:49;;;;;;;0.40;0.40;;;;;;;;;;4966751;28;20075;-83
2023/12/28 13:20:16;;;;;;;0.30;0.30;;;;;;;;;;4962382;29;20102;-84
2023/12/28 13:22:43;;;;;;;0.30;0.30;;;;;;;;;;4963437;29;20088;-83
2023/12/28 13:25:17;;;;;;;0.30;0.30;;;;;;;;;;4978337;29;20031;-84
2023/12/28 13:27:44;;;;;;;0.30;0.30;;;;;;;;;;4978319;29;20548;-85
2023/12/28 13:30:12;;;;;;;0.25;0.25;;;;;;;;;;4947855;29;20040;-83
2023/12/28 13:32:38;;;;;;;0.40;0.40;;;;;;;;;;4964332;29;20039;-84
2023/12/28 13:35:12;;;;;;;0.40;0.40;;;;;;;;;;4960018;29;20135;-84
2023/12/28 13:37:40;;;;;;;0.30;0.30;;;;;;;;;;4972961;29;20052;-84
2023/12/28 13:40:26;;;;;;;0.30;0.30;;;;;;;;;;4967584;29;20101;-85
2023/12/28 13:42:57;;;;;;;0.20;0.20;;;;;;;;;;4955433;29;20071;-84
2023/12/28 13:45:25;;;;;;;0.38;0.38;;;;;;;;;;4978273;28;20075;-84
2023/12/28 13:47:51;;;;;;;0.20;0.20;;;;;;;;;;4962380;29;20057;-84
2023/12/28 13:53:43;;;;;;;0.30;0.30;;;;;;;;;;4984991;28;20034;-84
2023/12/28 13:56:32;;;;;;;0.30;0.30;;;;;;;;;;4979144;29;20041;-83
2023/12/28 13:59:32;;;;;;;0.20;0.20;;;;;;;;;;4971927;29;20090;-84
2023/12/28 14:02:03;;;;;;;0.30;0.30;;;;;;;;;;4977026;28;20047;-84
2023/12/28 14:04:34;;;;;;;0.30;0.30;;;;;;;;;;4979930;29;20035;-84
2023/12/28 14:07:13;;;;;;;0.30;0.30;;;;;;;;;;4964367;29;20051;-84
2023/12/28 14:09:45;;;;;;;0.20;0.20;;;;;;;;;;4977713;29;20132;-84
2023/12/28 14:12:14;;;;;;;;;;;;;;;;;;4963484;29;20043;-84
2023/12/28 14:14:42;;;;;;;0.30;0.30;;;;;;;;;;4962651;29;19918;-85
2023/12/28 14:17:08;;;;;;;0.30;0.30;;;;;;;;;;4963313;29;20058;-85
2023/12/28 14:19:41;;;;;;;0.30;0.30;;;;;;;;;;4963501;29;20106;-85
2023/12/28 14:22:16;;;;;;;0.30;0.30;;;;;;;;;;4963327;28;20043;-83
2023/12/28 14:24:49;;;;;;;0.25;0.25;;;;;;;;;;4978099;29;20039;-82
2023/12/28 14:27:15;;;;;;;0.68;0.68;;;;;;;;;;4978387;28;20062;-83
2023/12/28 14:29:50;;;;;;;0.28;0.28;;;;;;;;;;4978276;28;20027;-83
2023/12/28 14:32:17;;;;;;;0.30;0.30;;;;;;;;;;4974574;29;20051;-84
2023/12/28 14:34:44;;;;;;;0.32;0.32;;;;;;;;;;4970491;29;20039;-85
2023/12/28 14:37:11;;;;;;;0.30;0.30;;;;;;;;;;4971556;29;20127;-85
2023/12/28 14:39:40;;;;;;;0.20;0.20;;;;;;;;;;4978095;29;20103;-85
2023/12/28 14:42:18;;;;;;;0.30;0.30;;;;;;;;;;4975496;28;20055;-84
2023/12/28 14:44:45;;;;;;;0.40;0.40;;;;;;;;;;4962563;29;20031;-83
2023/12/28 14:47:43;;;;;;;0.30;0.30;;;;;;;;;;4978337;28;20047;-85
2023/12/28 14:50:27;;;;;;;0.28;0.28;;;;;;;;;;4976517;28;20483;-83
2023/12/28 14:52:56;;;;;;;0.20;0.20;;;;;;;;;;4956311;28;20027;-84
2023/12/28 14:55:28;;;;;;;0.17;0.17;;;;;;;;;;4962106;29;20031;-85
2023/12/28 14:58:13;;;;;;;0.30;0.30;;;;;;;;;;4978304;29;20063;-81
2023/12/28 15:00:47;;;;;;;0.30;0.30;;;;;;;;;;4979177;29;20096;-83
2023/12/28 15:03:13;;;;;;;0.30;0.30;;;;;;;;;;4970444;28;20067;-84
2023/12/28 15:05:39;;;;;;;0.30;0.30;;;;;;;;;;4949374;29;20043;-84
2023/12/28 15:11:42;;;;;;;0.30;0.30;;;;;;;;;;4981818;28;20062;-84
2023/12/28 15:14:13;;;;;;;0.30;0.30;;;;;;;;;;4978419;29;20039;-85
2023/12/28 15:16:42;;;;;;;0.35;0.35;;;;;;;;;;4960870;29;20054;-84
2023/12/28 15:19:14;;;;;;;0.40;0.40;;;;;;;;;;4977993;29;20114;-84
2023/12/28 15:25:08;;;;;;;0.30;0.30;;;;;;;;;;4980091;28;20047;-85
2023/12/28 15:27:43;;;;;;;0.30;0.30;;;;;;;;;;4977894;28;20066;-85
2023/12/28 15:30:19;;;;;;;0.30;0.30;;;;;;;;;;4979968;28;20038;-84
2023/12/28 15:32:52;;;;;;;0.38;0.38;;;;;;;;;;4963954;29;20050;-84
2023/12/28 15:35:44;;;;;;;0.20;0.20;;;;;;;;;;4966712;29;20062;-86
2023/12/28 15:38:53;;;;;;;0.20;0.20;;;;;;;;;;4979498;28;20038;-86
2023/12/28 15:41:38;;;;;;;0.30;0.30;;;;;;;;;;4976178;28;20039;-86
2023/12/28 15:44:05;;;;;;;0.35;0.35;;;;;;;;;;4944738;29;20392;-86
2023/12/28 15:46:31;;;;;;;0.40;0.40;;;;;;;;;;4943611;29;20081;-86
2023/12/28 15:52:33;;;;;;;0.30;0.30;;;;;;;;;;4982366;28;20042;-86
2023/12/28 15:55:02;;;;;;;0.30;0.30;;;;;;;;;;4977250;28;20051;-87
2023/12/28 15:57:28;;;;;;;0.30;0.30;;;;;;;;;;4942693;29;20035;-87
2023/12/28 16:03:33;;;;;;;0.30;0.30;;;;;;;;;;4978430;28;20099;-85
2023/12/28 16:06:02;;;;;;;0.40;0.40;;;;;;;;;;4961004;29;20082;-86
2023/12/28 16:08:28;;;;;;;0.30;0.30;;;;;;;;;;4959833;29;20054;-87
2023/12/28 16:10:54;;;;;;;0.30;0.30;;;;;;;;;;4942527;29;20114;-86
2023/12/28 16:13:20;;;;;;;0.30;0.30;;;;;;;;;;4943145;29;20089;-86
2023/12/28 16:15:46;;;;;;;0.30;0.30;;;;;;;;;;4942887;29;20035;-85
2023/12/28 16:18:20;;;;;;;0.30;0.30;;;;;;;;;;4962969;28;20039;-86
2023/12/28 16:21:06;;;;;;;0.30;0.30;;;;;;;;;;4978042;29;20054;-85
2023/12/28 16:24:17;;;;;;;0.30;0.30;;;;;;;;;;4979292;28;20043;-84
2023/12/28 16:30:31;;;;;;;0.40;0.40;;;;;;;;;;4985546;28;20083;-86
2023/12/28 16:38:22;;;;;;;0.30;0.30;;;;;;;;;;4994459;28;20054;-86
2023/12/28 16:40:48;;;;;;;0.32;0.32;;;;;;;;;;4963917;28;20054;-86
2023/12/28 16:43:15;;;;;;;0.30;0.30;;;;;;;;;;4962103;28;20137;-85
2023/12/28 16:45:45;;;;;;;0.30;0.30;;;;;;;;;;4985864;28;20042;-87
2023/12/28 16:48:19;;;;;;;0.30;0.30;;;;;;;;;;4981740;28;20027;-87
2023/12/28 16:51:14;;;;;;;0.30;0.30;;;;;;;;;;4977598;28;20125;-86
2023/12/28 16:54:12;;;;;;;0.38;0.38;;;;;;;;;;4973070;28;20037;-86
2023/12/28 16:56:56;;;;;;;;;;;;;;;;;;4902921;29;20092;-85
2023/12/28 16:59:28;;;;;;;0.40;0.40;;;;;;;;;;4959722;28;20407;-85
2023/12/28 17:01:54;;;;;;;0.30;0.30;;;;;;;;;;4944600;29;20039;-88
2023/12/28 17:04:20;;;;;;;0.20;0.20;;;;;;;;;;4958892;28;20059;-83
2023/12/28 17:06:46;;;;;;;0.30;0.30;;;;;;;;;;4980313;28;20143;-86
2023/12/28 17:09:12;;;;;;;0.30;0.30;;;;;;;;;;4994855;28;20046;-86
2023/12/28 17:11:42;;;;;;;0.30;0.30;;;;;;;;;;4962653;28;20043;-87
2023/12/28 17:14:08;;;;;;;0.30;0.30;;;;;;;;;;5001274;28;20042;-85
2023/12/28 17:16:34;;;;;;;0.30;0.30;;;;;;;;;;4980440;28;20085;-86
2023/12/28 17:19:01;;;;;;;0.30;0.30;;;;;;;;;;4963371;28;20035;-88
2023/12/28 17:21:30;;;;;;;0.35;0.35;;;;;;;;;;4974989;28;20058;-88
2023/12/28 17:24:05;;;;;;;0.28;0.28;;;;;;;;;;4998969;28;20091;-86
2023/12/28 17:26:55;;;;;;;0.40;0.40;;;;;;;;;;5017576;28;20058;-86
2023/12/28 17:29:23;;;;;;;0.30;0.30;;;;;;;;;;5017804;28;20037;-87
2023/12/28 17:35:15;;;;;;;0.30;0.30;;;;;;;;;;5035793;28;20412;-87
2023/12/28 17:37:42;;;;;;;0.40;0.40;;;;;;;;;;4990135;28;20053;-87
2023/12/28 17:40:08;;;;;;;0.30;0.30;;;;;;;;;;4967607;28;20413;-86
2023/12/28 17:42:47;;;;;;;0.30;0.30;;;;;;;;;;4976510;28;20042;-87
2023/12/28 17:45:18;;;;;;;0.30;0.30;;;;;;;;;;4972252;28;20043;-85
2023/12/28 17:48:15;;;;;;;0.30;0.30;;;;;;;;;;4986528;28;20027;-87
2023/12/28 17:51:01;;;;;;;0.20;0.20;;;;;;;;;;5013882;28;20065;-86
2023/12/28 17:53:35;;;;;;;0.30;0.30;;;;;;;;;;4977573;28;20528;-87
2023/12/28 17:56:02;;;;;;;0.30;0.30;;;;;;;;;;4982509;28;20175;-87
2023/12/28 17:58:35;;;;;;;0.20;0.20;;;;;;;;;;4980164;28;20071;-86
2023/12/28 18:01:19;;;;;;;0.30;0.30;;;;;;;;;;5006875;28;20108;-86
2023/12/28 18:03:45;;;;;;;0.30;0.30;;;;;;;;;;5005136;28;20054;-87
2023/12/28 18:06:12;;;;;;;0.20;0.20;;;;;;;;;;4967778;28;20074;-87
2023/12/28 18:08:38;;;;;;;0.40;0.40;;;;;;;;;;4965564;28;20057;-87
2023/12/28 18:11:04;;;;;;;0.30;0.30;;;;;;;;;;5010793;28;20038;-85
2023/12/28 18:13:37;;;;;;;0.30;0.30;;;;;;;;;;5012773;28;20030;-85
2023/12/28 18:16:12;;;;;;;0.30;0.30;;;;;;;;;;5024497;28;20081;-87
2023/12/28 18:19:04;;;;;;;0.30;0.30;;;;;;;;;;4980356;28;20046;-87
2023/12/28 18:22:12;;;;;;;0.22;0.22;;;;;;;;;;5003674;28;20049;-86
2023/12/28 18:24:49;;;;;;;0.30;0.30;;;;;;;;;;5019575;28;20050;-86
2023/12/28 18:27:34;;;;;;;0.20;0.20;;;;;;;;;;5019927;28;20052;-86
2023/12/28 18:30:06;;;;;;;0.30;0.30;;;;;;;;;;5018786;28;20037;-84
2023/12/28 18:32:44;;;;;;;0.30;0.30;;;;;;;;;;5039627;28;20049;-86
2023/12/28 18:35:22;;;;;;;0.30;0.30;;;;;;;;;;5034555;28;20029;-85
2023/12/28 18:38:03;;;;;;;0.20;0.20;;;;;;;;;;4980182;28;20050;-86
2023/12/28 18:40:29;;;;;;;0.30;0.30;;;;;;;;;;5000958;28;20049;-87
2023/12/28 18:43:14;;;;;;;0.38;0.38;;;;;;;;;;4994864;28;20050;-86
2023/12/28 18:49:32;;;;;;;0.30;0.30;;;;;;;;;;4996544;28;20097;-86
2023/12/28 18:52:02;;;;;;;0.30;0.30;;;;;;;;;;5004578;28;20050;-87
2023/12/28 18:54:38;;;;;;;0.30;0.30;;;;;;;;;;5016850;28;20042;-86
2023/12/28 18:57:07;;;;;;;0.30;0.30;;;;;;;;;;4999841;28;20038;-86
2023/12/28 18:59:42;;;;;;;0.30;0.30;;;;;;;;;;4995465;28;20041;-85
2023/12/28 19:05:44;;;;;;;0.30;0.30;;;;;;;;;;5039010;28;20029;-85
2023/12/28 19:11:17;;;;;;;0.30;0.30;;;;;;;;;;5043605;28;20081;-87
2023/12/28 19:13:55;;;;;;;0.30;0.30;;;;;;;;;;5037880;28;20041;-86
2023/12/28 19:16:28;;;;;;;0.30;0.30;;;;;;;;;;5026051;28;20122;-86
2023/12/28 19:26:13;;;;;;;0.30;0.30;;;;;;;;;;4981242;28;20125;-86
2023/12/28 19:32:25;;;;;;;0.20;0.20;;;;;;;;;;4992185;28;20512;-87
2023/12/28 19:35:03;;;;;;;0.25;0.25;;;;;;;;;;4980231;28;20022;-87
2023/12/28 19:37:45;;;;;;;0.28;0.28;;;;;;;;;;5002340;28;20022;-86
2023/12/28 19:40:12;;;;;;;0.40;0.40;;;;;;;;;;5002609;28;20042;-86
2023/12/28 19:42:38;;;;;;;1.17;1.10;;;;;;;;;;4996757;28;20448;-86
2023/12/28 19:45:05;;;;;;;0.20;0.20;;;;;;;;;;4968363;28;20115;-85
2023/12/28 19:47:34;;;;;;;0.30;0.30;;;;;;;;;;4991854;28;20042;-86
2023/12/28 19:50:34;;;;;;;0.20;0.20;;;;;;;;;;4998312;28;20046;-86
2023/12/28 19:56:27;;;;;;;0.20;0.20;;;;;;;;;;5024830;28;20040;-87
2023/12/28 19:59:23;;;;;;;0.20;0.20;;;;;;;;;;5014566;28;20049;-85
2023/12/28 20:02:21;;;;;;;0.30;0.30;;;;;;;;;;5013303;28;20076;-86
2023/12/28 20:08:11;;;;;;;0.30;0.30;;;;;;;;;;5024214;28;20037;-84
2023/12/28 20:10:58;;;;;;;0.30;0.30;;;;;;;;;;5001705;28;20046;-88
2023/12/28 20:13:30;;;;;;;0.32;0.32;;;;;;;;;;5000718;28;20500;-86
2023/12/28 20:19:43;;;;;;;0.28;0.28;;;;;;;;;;5023465;28;20050;-86
2023/12/28 20:22:41;;;;;;;0.30;0.30;;;;;;;;;;5006246;28;20047;-87
2023/12/28 20:25:14;;;;;;;0.30;0.30;;;;;;;;;;5006419;28;20034;-86
2023/12/28 20:27:44;;;;;;;0.40;0.40;;;;;;;;;;5001720;28;20088;-88
2023/12/28 20:30:15;;;;;;;0.30;0.30;;;;;;;;;;5017651;28;20022;-86
2023/12/28 20:32:42;;;;;;;0.30;0.30;;;;;;;;;;5001402;28;20042;-87
2023/12/28 20:35:08;;;;;;;0.30;0.30;;;;;;;;;;4999848;28;20046;-86
2023/12/28 20:37:35;;;;;;;0.40;0.40;;;;;;;;;;5012990;28;20114;-85
2023/12/28 20:40:07;;;;;;;0.20;0.20;;;;;;;;;;5033329;28;20054;-85
2023/12/28 20:42:46;;;;;;;0.32;0.32;;;;;;;;;;5026079;28;20066;-84
2023/12/28 20:45:13;;;;;;;0.30;0.30;;;;;;;;;;4997353;28;20062;-87
2023/12/28 20:47:39;;;;;;;0.30;0.30;;;;;;;;;;4979818;28;20035;-87
2023/12/28 20:53:28;;;;;;;0.30;0.30;;;;;;;;;;4997875;28;20038;-87
2023/12/28 20:56:16;;;;;;;0.30;0.30;;;;;;;;;;5031401;28;20053;-86
2023/12/28 21:02:32;;;;;;;0.30;0.30;;;;;;;;;;5002788;28;20090;-85
2023/12/28 21:05:12;;;;;;;0.30;0.30;;;;;;;;;;5036330;28;20041;-86
2023/12/28 21:07:57;;;;;;;0.30;0.30;;;;;;;;;;5003221;28;20044;-86
2023/12/28 21:10:23;;;;;;;0.40;0.40;;;;;;;;;;5003283;28;20085;-88
2023/12/28 21:13:01;;;;;;;0.30;0.30;;;;;;;;;;4999888;28;20050;-86
2023/12/28 21:15:50;;;;;;;0.40;0.40;;;;;;;;;;4994356;28;20065;-87
2023/12/28 21:18:19;;;;;;;0.28;0.28;;;;;;;;;;5017418;28;20030;-85
2023/12/28 21:21:03;;;;;;;0.30;0.30;;;;;;;;;;5017177;28;20053;-85
2023/12/28 21:23:29;;;;;;;0.30;0.30;;;;;;;;;;5014394;28;20032;-86
2023/12/28 21:29:57;;;;;;;;;;;;;;;;;;;;;
2023/12/28 21:36:06;;;;;;;0.20;0.20;;;;;;;;;;5024042;28;20033;-86
2023/12/28 21:38:35;;;;;;;0.30;0.30;;;;;;;;;;5017538;28;20061;-85
2023/12/28 21:41:05;;;;;;;0.30;0.30;;;;;;;;;;5008852;28;20503;-85
2023/12/28 21:43:42;;;;;;;0.40;0.40;;;;;;;;;;5000677;28;20057;-86
2023/12/28 21:46:25;;;;;;;0.30;0.30;;;;;;;;;;4968040;28;20038;-87
2023/12/28 21:49:15;;;;;;;0.40;0.40;;;;;;;;;;5052344;28;20032;-86
2023/12/28 21:55:14;;;;;;;0.30;0.30;;;;;;;;;;5039394;28;20044;-86
2023/12/28 22:01:03;;;;;;;0.30;0.30;;;;;;;;;;5011551;28;20034;-85
2023/12/28 22:03:33;;;;;;;0.32;0.32;;;;;;;;;;5004347;28;20065;-86
2023/12/28 22:06:01;;;;;;;0.30;0.30;;;;;;;;;;5020753;28;20081;-84
2023/12/28 22:08:48;;;;;;;0.30;0.30;;;;;;;;;;5013854;28;20041;-87
2023/12/28 22:18:03;;;;;;;0.30;0.30;;;;;;;;;;5040511;28;20053;-86
2023/12/28 22:20:42;;;;;;;0.40;0.40;;;;;;;;;;5023133;28;20050;-84
2023/12/28 22:26:37;;;;;;;0.40;0.40;;;;;;;;;;5018602;28;20604;-86
2023/12/28 22:32:34;;;;;;;0.30;0.30;;;;;;;;;;5026825;28;20053;-85
2023/12/28 22:35:15;;;;;;;0.40;0.40;;;;;;;;;;5003531;28;20126;-85
2023/12/28 22:37:44;;;;;;;0.30;0.30;;;;;;;;;;4999536;28;20062;-84
2023/12/28 22:40:28;;;;;;;0.30;0.30;;;;;;;;;;4920420;29;20088;-87
2023/12/28 22:42:55;;;;;;;0.30;0.30;;;;;;;;;;4945748;28;20050;-87
2023/12/28 22:45:30;;;;;;;0.30;0.30;;;;;;;;;;4982227;28;20047;-85
2023/12/28 22:51:41;;;;;;;0.30;0.30;;;;;;;;;;4980010;28;20065;-85
2023/12/28 22:54:19;;;;;;;0.30;0.30;;;;;;;;;;4984602;28;20039;-87
2023/12/28 22:56:49;;;;;;;0.20;0.20;;;;;;;;;;5016355;28;20467;-85
2023/12/28 22:59:20;;;;;;;0.40;0.40;;;;;;;;;;5001881;28;20041;-84
2023/12/28 23:02:13;;;;;;;0.20;0.20;;;;;;;;;;5018426;28;20097;-85
2023/12/28 23:04:45;;;;;;;0.30;0.30;;;;;;;;;;4997619;28;20066;-84
2023/12/28 23:10:54;;;;;;;0.40;0.40;;;;;;;;;;4999474;28;20109;-86
2023/12/28 23:13:29;;;;;;;0.30;0.30;;;;;;;;;;5001025;28;20053;-84
2023/12/28 23:16:00;;;;;;;0.30;0.30;;;;;;;;;;5017328;28;20132;-85
2023/12/28 23:18:29;;;;;;;0.40;0.40;;;;;;;;;;5017939;28;20528;-85
2023/12/28 23:21:15;;;;;;;0.30;0.30;;;;;;;;;;5019077;28;20049;-85
2023/12/28 23:27:31;;;;;;;0.30;0.30;;;;;;;;;;5005061;28;20041;-86
2023/12/28 23:29:57;;;;;;;0.30;0.30;;;;;;;;;;4989435;28;20132;-85
2023/12/28 23:32:39;;;;;;;0.20;0.20;;;;;;;;;;5000773;28;20042;-84
2023/12/28 23:35:09;;;;;;;0.30;0.30;;;;;;;;;;5033934;28;20068;-86
2023/12/28 23:37:40;;;;;;;0.30;0.30;;;;;;;;;;5033850;28;20033;-84
2023/12/28 23:40:13;;;;;;;0.30;0.30;;;;;;;;;;5031563;28;20032;-83
2023/12/28 23:42:45;;;;;;;0.38;0.38;;;;;;;;;;5020548;28;20047;-85
2023/12/28 23:45:20;;;;;;;0.30;0.30;;;;;;;;;;5017353;28;20042;-85
2023/12/28 23:51:00;;;;;;;0.32;0.32;;;;;;;;;;5010659;28;20081;-85
2023/12/28 23:53:29;;;;;;;0.30;0.30;;;;;;;;;;5000144;28;20038;-83
2023/12/28 23:56:08;;;;;;;0.40;0.40;;;;;;;;;;5017389;28;20050;-85
